DENTE NZMO-ZZZZ

Flight info

Callsign DENTE
Flight time N/A
Altitude 7500
Route VFR
Aircraft PA24/L-VGD/A

Departure

Time 2026-04-25 08:06
Airport Manapouri Airport (NZMO)

Arrival

Time N/A
Airport ZZZZ
Time Latitude Longitude Altitude Speed Heading
2026-04-25 08:01 -45.53312 167.64338 710 ft 0 kts 262°
2026-04-25 08:02 -45.53313 167.64318 710 ft 2 kts 299°
2026-04-25 08:02 -45.53280 167.64307 709 ft 9 kts 359°
2026-04-25 08:03 -45.53236 167.64312 709 ft 0 kts
2026-04-25 08:04 -45.53189 167.64313 709 ft 26 kts
2026-04-25 08:04 -45.53155 167.64346 709 ft 0 kts 120°
2026-04-25 08:05 -45.53202 167.64650 714 ft 72 kts 102°
2026-04-25 08:05 -45.53357 167.65489 898 ft 94 kts 98°
2026-04-25 08:05 -45.53152 167.66344 1229 ft 99 kts 36°
2026-04-25 08:06 -45.52518 167.66491 1576 ft 100 kts 333°
2026-04-25 08:06 -45.51970 167.65831 1830 ft 106 kts 313°
2026-04-25 08:06 -45.51499 167.65024 2130 ft 105 kts 310°
2026-04-25 08:06 -45.51074 167.64221 2487 ft 97 kts 308°
2026-04-25 08:07 -45.50683 167.63446 2730 ft 95 kts 307°
2026-04-25 08:07 -45.50305 167.62700 3018 ft 92 kts 307°
2026-04-25 08:07 -45.49910 167.61944 3256 ft 96 kts 308°
2026-04-25 08:07 -45.49465 167.61275 3511 ft 96 kts 328°
2026-04-25 08:08 -45.48791 167.61133 3695 ft 106 kts 10°
2026-04-25 08:08 -45.48139 167.61611 4016 ft 104 kts 22°
2026-04-25 08:08 -45.47486 167.62137 4216 ft 114 kts 21°
2026-04-25 08:08 -45.46797 167.62685 4544 ft 111 kts 21°
2026-04-25 08:09 -45.46099 167.63249 4769 ft 121 kts 23°
2026-04-25 08:09 -45.45381 167.63871 5106 ft 119 kts 23°
2026-04-25 08:09 -45.44658 167.64509 5341 ft 127 kts 23°
2026-04-25 08:09 -45.43880 167.65184 5570 ft 133 kts 23°
2026-04-25 08:10 -45.43009 167.65918 5542 ft 155 kts 24°
2026-04-25 08:10 -45.42048 167.66708 5536 ft 162 kts 23°
2026-04-25 08:10 -45.41080 167.67500 5511 ft 162 kts 23°
2026-04-25 08:10 -45.40108 167.68289 5507 ft 160 kts 23°
2026-04-25 08:11 -45.39141 167.69075 5520 ft 160 kts 22°
2026-04-25 08:11 -45.38162 167.69825 5520 ft 159 kts 21°
2026-04-25 08:11 -45.37182 167.70571 5530 ft 160 kts 21°
2026-04-25 08:11 -45.36196 167.71316 5530 ft 160 kts 21°
2026-04-25 08:12 -45.35191 167.72006 5525 ft 160 kts 18°
2026-04-25 08:12 -45.34176 167.72654 5528 ft 160 kts 16°
2026-04-25 08:12 -45.33156 167.73266 5612 ft 157 kts 15°
2026-04-25 08:12 -45.32161 167.73868 5803 ft 154 kts 15°
2026-04-25 08:13 -45.31195 167.74458 6088 ft 152 kts 15°
2026-04-25 08:13 -45.30220 167.75032 6273 ft 154 kts 15°
2026-04-25 08:13 -45.29215 167.75567 6528 ft 155 kts 14°
2026-04-25 08:14 -45.27126 167.76596 6956 ft 160 kts 13°
2026-04-25 08:14 -45.26072 167.77132 7149 ft 162 kts 14°
2026-04-25 08:14 -45.25012 167.77697 7344 ft 163 kts 15°
2026-04-25 08:14 -45.23951 167.78261 7544 ft 163 kts 15°
2026-04-25 08:15 -45.22864 167.78832 7566 ft 174 kts 15°
2026-04-25 08:15 -45.21706 167.79429 7528 ft 179 kts 15°
2026-04-25 08:15 -45.20548 167.80027 7531 ft 174 kts 15°
2026-04-25 08:15 -45.19412 167.80616 7542 ft 173 kts 15°
2026-04-25 08:16 -45.18278 167.81204 7548 ft 173 kts 15°
2026-04-25 08:16 -45.17148 167.81794 7550 ft 173 kts 15°
2026-04-25 08:16 -45.16019 167.82385 7551 ft 173 kts 15°
2026-04-25 08:16 -45.14886 167.82981 7552 ft 174 kts 15°
2026-04-25 08:17 -45.13764 167.83573 7552 ft 174 kts 15°
2026-04-25 08:17 -45.12622 167.84173 7553 ft 176 kts 15°
2026-04-25 08:17 -45.11485 167.84749 7552 ft 170 kts 15°
2026-04-25 08:17 -45.10374 167.85277 7551 ft 167 kts 15°
2026-04-25 08:18 -45.09267 167.85803 7552 ft 168 kts 15°
2026-04-25 08:18 -45.08165 167.86330 7554 ft 167 kts 15°
2026-04-25 08:18 -45.07060 167.86857 7555 ft 168 kts 15°
2026-04-25 08:18 -45.05920 167.87239 7556 ft 168 kts
2026-04-25 08:19 -45.04767 167.87523 7565 ft 168 kts
2026-04-25 08:19 -45.03639 167.87803 7563 ft 166 kts
2026-04-25 08:19 -45.02502 167.88087 7564 ft 166 kts
2026-04-25 08:19 -45.01366 167.88372 7565 ft 165 kts
2026-04-25 08:20 -45.00251 167.88750 7565 ft 164 kts 13°
2026-04-25 08:20 -44.99181 167.89344 7565 ft 166 kts 22°
2026-04-25 08:20 -44.98127 167.90039 7563 ft 168 kts 22°
2026-04-25 08:20 -44.97067 167.90741 7569 ft 168 kts 22°
2026-04-25 08:21 -44.95999 167.91450 7569 ft 170 kts 22°
2026-04-25 08:21 -44.94941 167.92148 7567 ft 169 kts 23°
2026-04-25 08:21 -44.93879 167.92846 7567 ft 168 kts 23°
2026-04-25 08:21 -44.92821 167.93536 7566 ft 166 kts 23°
2026-04-25 08:22 -44.91764 167.94201 7569 ft 167 kts 21°
2026-04-25 08:22 -44.90665 167.94739 7568 ft 168 kts 15°
2026-04-25 08:22 -44.89554 167.95214 7570 ft 166 kts 14°
2026-04-25 08:22 -44.88440 167.95652 7570 ft 166 kts 11°
2026-04-25 08:23 -44.87306 167.95975 7571 ft 166 kts
2026-04-25 08:23 -44.86160 167.96221 7570 ft 166 kts
2026-04-25 08:23 -44.85036 167.96459 7571 ft 165 kts
2026-04-25 08:23 -44.83900 167.96697 7572 ft 165 kts
2026-04-25 08:24 -44.82757 167.96941 7573 ft 166 kts
2026-04-25 08:24 -44.81615 167.97180 7574 ft 166 kts
2026-04-25 08:24 -44.80466 167.97417 7575 ft 167 kts
2026-04-25 08:24 -44.79318 167.97422 7577 ft 165 kts 347°
2026-04-25 08:25 -44.78195 167.97140 7571 ft 162 kts 343°
2026-04-25 08:25 -44.77099 167.96830 7570 ft 161 kts 343°
2026-04-25 08:25 -44.76013 167.96518 7569 ft 156 kts 343°
2026-04-25 08:25 -44.74938 167.96313 7572 ft 158 kts 358°
2026-04-25 08:26 -44.73817 167.96446 7572 ft 164 kts
2026-04-25 08:26 -44.72672 167.96644 7573 ft 168 kts
2026-04-25 08:26 -44.71519 167.96843 7573 ft 166 kts
2026-04-25 08:26 -44.70378 167.97052 7573 ft 166 kts
2026-04-25 08:27 -44.69227 167.97252 7572 ft 167 kts
2026-04-25 08:27 -44.68088 167.97442 7575 ft 167 kts
2026-04-25 08:27 -44.66925 167.97646 7571 ft 168 kts
2026-04-25 08:27 -44.65777 167.97879 7574 ft 166 kts 13°
2026-04-25 08:28 -44.64691 167.98467 7572 ft 167 kts 25°
2026-04-25 08:28 -44.63714 167.99339 7571 ft 166 kts 37°
2026-04-25 08:28 -44.62819 168.00367 7567 ft 167 kts 43°
2026-04-25 08:28 -44.61946 168.01426 7570 ft 165 kts 43°
2026-04-25 08:29 -44.61085 168.02472 7571 ft 167 kts 43°
2026-04-25 08:29 -44.60207 168.03543 7572 ft 166 kts 43°
2026-04-25 08:29 -44.59331 168.04605 7569 ft 168 kts 43°
2026-04-25 08:29 -44.58448 168.05699 7567 ft 169 kts 43°
2026-04-25 08:30 -44.57582 168.06789 7565 ft 168 kts 43°
2026-04-25 08:30 -44.56702 168.07882 7566 ft 169 kts 43°
2026-04-25 08:30 -44.55818 168.08951 7566 ft 166 kts 43°
2026-04-25 08:30 -44.54944 168.09994 7566 ft 165 kts 43°
2026-04-25 08:31 -44.54074 168.11035 7568 ft 164 kts 43°
2026-04-25 08:31 -44.53202 168.12074 7563 ft 165 kts 43°
2026-04-25 08:31 -44.52330 168.13119 7565 ft 165 kts 43°
2026-04-25 08:31 -44.51459 168.14166 7564 ft 164 kts 43°
2026-04-25 08:32 -44.50589 168.15171 7567 ft 164 kts 39°
2026-04-25 08:32 -44.49667 168.16128 7565 ft 165 kts 38°
2026-04-25 08:32 -44.48744 168.17082 7565 ft 165 kts 38°
2026-04-25 08:32 -44.47821 168.18034 7565 ft 165 kts 38°
2026-04-25 08:33 -44.46895 168.18992 7565 ft 165 kts 39°
2026-04-25 08:33 -44.45973 168.19948 7560 ft 165 kts 40°
2026-04-25 08:33 -44.45082 168.20956 7560 ft 164 kts 37°
2026-04-25 08:33 -44.44031 168.21509 7559 ft 165 kts 14°
2026-04-25 08:34 -44.42909 168.21866 7557 ft 165 kts 12°
2026-04-25 08:34 -44.41775 168.22158 7557 ft 166 kts
2026-04-25 08:34 -44.40629 168.22311 7559 ft 165 kts
2026-04-25 08:34 -44.39481 168.22436 7557 ft 165 kts
2026-04-25 08:35 -44.38334 168.22559 7551 ft 167 kts
2026-04-25 08:35 -44.37163 168.22689 7557 ft 170 kts
2026-04-25 08:35 -44.35980 168.22822 7558 ft 171 kts
2026-04-25 08:35 -44.34814 168.23102 7560 ft 170 kts 14°
2026-04-25 08:36 -44.33667 168.23544 7557 ft 172 kts 15°
2026-04-25 08:36 -44.32541 168.24027 7557 ft 171 kts 21°
2026-04-25 08:36 -44.31442 168.24646 7556 ft 170 kts 24°
2026-04-25 08:36 -44.30376 168.25360 7556 ft 170 kts 28°
2026-04-25 08:37 -44.29316 168.26101 7556 ft 170 kts 29°
2026-04-25 08:37 -44.28285 168.26917 7557 ft 170 kts 32°
2026-04-25 08:37 -44.27606 168.27466 7556 ft 170 kts 32°
2026-04-25 08:37 -44.26582 168.28300 7557 ft 170 kts 33°
2026-04-25 08:38 -44.25746 168.29433 7557 ft 166 kts 53°
2026-04-25 08:38 -44.24992 168.30657 7556 ft 166 kts 54°
2026-04-25 08:38 -44.24244 168.31875 7551 ft 165 kts 54°
2026-04-25 08:38 -44.23508 168.33094 7555 ft 162 kts 54°
2026-04-25 08:39 -44.22808 168.34294 7552 ft 160 kts 55°
2026-04-25 08:39 -44.22130 168.35524 7551 ft 160 kts 56°
2026-04-25 08:39 -44.21458 168.36750 7547 ft 159 kts 56°
2026-04-25 08:39 -44.20795 168.37974 7546 ft 158 kts 57°
2026-04-25 08:40 -44.20138 168.39198 7549 ft 158 kts 57°
2026-04-25 08:40 -44.19476 168.40429 7543 ft 159 kts 57°
2026-04-25 08:40 -44.18816 168.41660 7545 ft 159 kts 57°
2026-04-25 08:40 -44.18156 168.42902 7547 ft 159 kts 57°
2026-04-25 08:41 -44.17497 168.44137 7546 ft 158 kts 57°
2026-04-25 08:41 -44.16837 168.45377 7547 ft 159 kts 57°
2026-04-25 08:41 -44.16189 168.46606 7546 ft 159 kts 59°
2026-04-25 08:41 -44.15566 168.47888 7547 ft 159 kts 60°
2026-04-25 08:42 -44.14946 168.49173 7545 ft 160 kts 60°
2026-04-25 08:42 -44.14322 168.50460 7547 ft 160 kts 60°
2026-04-25 08:42 -44.13704 168.51741 7546 ft 159 kts 60°
2026-04-25 08:42 -44.13088 168.53019 7545 ft 159 kts 59°
2026-04-25 08:43 -44.12461 168.54282 7546 ft 158 kts 59°
2026-04-25 08:43 -44.11834 168.55546 7546 ft 159 kts 59°
2026-04-25 08:43 -44.11213 168.56797 7550 ft 159 kts 59°
2026-04-25 08:43 -44.10584 168.58071 7549 ft 159 kts 59°
2026-04-25 08:44 -44.09958 168.59351 7550 ft 160 kts 59°
2026-04-25 08:44 -44.09332 168.60631 7548 ft 159 kts 59°
2026-04-25 08:44 -44.08709 168.61905 7549 ft 160 kts 59°
2026-04-25 08:44 -44.08090 168.63174 7549 ft 158 kts 59°
2026-04-25 08:45 -44.07472 168.64447 7547 ft 159 kts 59°
2026-04-25 08:45 -44.06858 168.65717 7547 ft 157 kts 59°
2026-04-25 08:45 -44.06243 168.66976 7551 ft 158 kts 59°
2026-04-25 08:45 -44.05628 168.68241 7552 ft 158 kts 59°
2026-04-25 08:46 -44.04997 168.69509 7555 ft 160 kts 59°
2026-04-25 08:46 -44.04364 168.70771 7553 ft 158 kts 58°
2026-04-25 08:46 -44.03743 168.72010 7556 ft 159 kts 59°
2026-04-25 08:46 -44.03109 168.73283 7559 ft 161 kts 59°
2026-04-25 08:47 -44.02466 168.74580 7567 ft 164 kts 59°
2026-04-25 08:47 -44.01818 168.75892 7567 ft 166 kts 59°
2026-04-25 08:47 -44.01159 168.77227 7563 ft 168 kts 59°
2026-04-25 08:47 -44.00496 168.78564 7557 ft 168 kts 58°
2026-04-25 08:48 -43.99807 168.79880 7556 ft 169 kts 57°
2026-04-25 08:48 -43.99115 168.81194 7555 ft 169 kts 57°
2026-04-25 08:48 -43.98421 168.82515 7553 ft 169 kts 57°
2026-04-25 08:48 -43.97729 168.83830 7553 ft 168 kts 57°
2026-04-25 08:49 -43.97038 168.85144 7554 ft 168 kts 57°
2026-04-25 08:49 -43.96348 168.86460 7553 ft 169 kts 57°
2026-04-25 08:49 -43.95656 168.87779 7553 ft 169 kts 57°
2026-04-25 08:49 -43.94965 168.89096 7554 ft 169 kts 57°
2026-04-25 08:50 -43.94273 168.90416 7553 ft 169 kts 57°
2026-04-25 08:50 -43.93582 168.91736 7554 ft 169 kts 57°
2026-04-25 08:50 -43.92900 168.93041 7555 ft 169 kts 57°
2026-04-25 08:50 -43.92213 168.94361 7553 ft 169 kts 57°
2026-04-25 08:51 -43.91526 168.95687 7555 ft 169 kts 57°
2026-04-25 08:51 -43.90840 168.97011 7555 ft 169 kts 57°
2026-04-25 08:51 -43.90156 168.98337 7554 ft 169 kts 57°
2026-04-25 08:51 -43.89472 168.99666 7555 ft 169 kts 57°
2026-04-25 08:52 -43.88789 169.00995 7552 ft 169 kts 58°
2026-04-25 08:52 -43.88107 169.02319 7554 ft 169 kts 58°
2026-04-25 08:52 -43.87423 169.03643 7552 ft 168 kts 58°
2026-04-25 08:52 -43.86741 169.04966 7554 ft 169 kts 58°
2026-04-25 08:53 -43.86068 169.06270 7553 ft 168 kts 58°
2026-04-25 08:53 -43.85388 169.07593 7554 ft 169 kts 58°
2026-04-25 08:53 -43.84708 169.08917 7555 ft 169 kts 58°
2026-04-25 08:53 -43.84027 169.10246 7555 ft 169 kts 58°
2026-04-25 08:54 -43.83347 169.11575 7554 ft 169 kts 58°
2026-04-25 08:54 -43.82669 169.12900 7553 ft 168 kts 58°
2026-04-25 08:54 -43.81993 169.14225 7553 ft 169 kts 58°
2026-04-25 08:54 -43.81317 169.15551 7553 ft 169 kts 58°
2026-04-25 08:55 -43.80641 169.16879 7551 ft 169 kts 58°
2026-04-25 08:55 -43.79963 169.18209 7552 ft 169 kts 57°
2026-04-25 08:55 -43.79243 169.19490 7554 ft 169 kts 53°
2026-04-25 08:55 -43.78491 169.20741 7554 ft 169 kts 53°
2026-04-25 08:56 -43.77736 169.21998 7555 ft 170 kts 53°
2026-04-25 08:56 -43.76981 169.23255 7553 ft 169 kts 53°
2026-04-25 08:56 -43.76229 169.24508 7554 ft 169 kts 53°
2026-04-25 08:56 -43.75476 169.25764 7555 ft 170 kts 53°
2026-04-25 08:57 -43.74722 169.27022 7553 ft 170 kts 53°
2026-04-25 08:57 -43.73970 169.28279 7555 ft 170 kts 53°
2026-04-25 08:57 -43.73228 169.29523 7555 ft 170 kts 53°
2026-04-25 08:57 -43.72477 169.30780 7553 ft 170 kts 53°
2026-04-25 08:58 -43.71722 169.32044 7554 ft 171 kts 53°
2026-04-25 08:58 -43.70964 169.33309 7554 ft 170 kts 53°
2026-04-25 08:58 -43.70206 169.34574 7553 ft 171 kts 53°
2026-04-25 08:58 -43.69485 169.35871 7556 ft 170 kts 61°
2026-04-25 08:59 -43.68874 169.37266 7555 ft 170 kts 63°
2026-04-25 08:59 -43.68268 169.38664 7555 ft 169 kts 63°
2026-04-25 08:59 -43.67662 169.40062 7555 ft 169 kts 63°
2026-04-25 08:59 -43.67056 169.41458 7554 ft 169 kts 63°
2026-04-25 09:00 -43.66446 169.42857 7560 ft 170 kts 63°
2026-04-25 09:00 -43.65845 169.44229 7556 ft 169 kts 63°
2026-04-25 09:00 -43.65236 169.45615 7553 ft 168 kts 63°
2026-04-25 09:00 -43.64629 169.46998 7554 ft 168 kts 63°
2026-04-25 09:01 -43.64023 169.48388 7553 ft 169 kts 63°
2026-04-25 09:01 -43.63417 169.49780 7555 ft 168 kts 63°
2026-04-25 09:01 -43.62814 169.51165 7552 ft 168 kts 63°
2026-04-25 09:01 -43.62219 169.52533 7554 ft 168 kts 63°
2026-04-25 09:02 -43.61614 169.53924 7555 ft 168 kts 63°
2026-04-25 09:02 -43.61011 169.55314 7554 ft 168 kts 63°
2026-04-25 09:02 -43.60409 169.56699 7555 ft 168 kts 63°
2026-04-25 09:02 -43.59808 169.58084 7552 ft 168 kts 63°
2026-04-25 09:03 -43.59217 169.59478 7554 ft 168 kts 67°
2026-04-25 09:03 -43.58719 169.60909 7554 ft 167 kts 69°
2026-04-25 09:03 -43.58224 169.62364 7553 ft 167 kts 69°
2026-04-25 09:03 -43.57715 169.63806 7554 ft 167 kts 68°
2026-04-25 09:04 -43.57187 169.65236 7553 ft 167 kts 68°
2026-04-25 09:04 -43.56661 169.66667 7555 ft 168 kts 68°
2026-04-25 09:04 -43.56136 169.68099 7553 ft 166 kts 68°
2026-04-25 09:04 -43.55624 169.69490 7447 ft 165 kts 68°
2026-04-25 09:05 -43.55099 169.70929 7270 ft 167 kts 68°
2026-04-25 09:05 -43.54592 169.72315 7298 ft 157 kts 68°
2026-04-25 09:05 -43.54108 169.73631 7314 ft 152 kts 68°
2026-04-25 09:05 -43.53632 169.74917 7332 ft 148 kts 68°
2026-04-25 09:06 -43.53144 169.76241 7107 ft 161 kts 68°
2026-04-25 09:06 -43.52645 169.77603 7061 ft 158 kts 68°
2026-04-25 09:06 -43.52154 169.78946 6946 ft 160 kts 68°
2026-04-25 09:06 -43.51654 169.80325 6847 ft 160 kts 68°
2026-04-25 09:07 -43.51170 169.81702 6732 ft 161 kts 68°
2026-04-25 09:07 -43.50685 169.83109 6568 ft 163 kts 68°
2026-04-25 09:07 -43.50210 169.84504 6507 ft 159 kts 68°
2026-04-25 09:07 -43.49739 169.85889 6382 ft 161 kts 68°
2026-04-25 09:08 -43.49261 169.87309 6019 ft 169 kts 68°
2026-04-25 09:08 -43.48763 169.88803 5600 ft 172 kts 68°
2026-04-25 09:08 -43.48297 169.90217 5481 ft 155 kts 68°
2026-04-25 09:08 -43.47850 169.91600 5089 ft 160 kts 69°
2026-04-25 09:09 -43.47404 169.92999 4788 ft 157 kts 68°
2026-04-25 09:09 -43.46975 169.94372 4495 ft 156 kts 69°
2026-04-25 09:09 -43.46552 169.95753 4169 ft 157 kts 69°
2026-04-25 09:09 -43.46137 169.97130 3898 ft 154 kts 69°
2026-04-25 09:10 -43.45852 169.98027 3702 ft 155 kts 66°
2026-04-25 09:10 -43.45226 169.99810 3314 ft 154 kts 63°
2026-04-25 09:10 -43.44710 170.01101 3032 ft 153 kts 61°
2026-04-25 09:10 -43.44191 170.02380 2743 ft 152 kts 61°
2026-04-25 09:11 -43.43187 170.04896 2293 ft 145 kts 61°
2026-04-25 09:11 -43.42723 170.06073 2214 ft 137 kts 61°
2026-04-25 09:11 -43.42282 170.07194 2179 ft 128 kts 61°
2026-04-25 09:12 -43.41858 170.08276 2094 ft 126 kts 61°
2026-04-25 09:12 -43.41449 170.09320 2064 ft 125 kts 61°
2026-04-25 09:12 -43.41027 170.10394 1969 ft 127 kts 61°
2026-04-25 09:12 -43.40614 170.11449 1938 ft 125 kts 61°
2026-04-25 09:13 -43.40112 170.12441 1862 ft 128 kts 48°
2026-04-25 09:13 -43.39455 170.13273 1804 ft 129 kts 37°
2026-04-25 09:13 -43.38700 170.13935 1752 ft 129 kts 22°
2026-04-25 09:13 -43.37838 170.14267 1702 ft 127 kts
2026-04-25 09:14 -43.36973 170.14289 1664 ft 125 kts 353°
2026-04-25 09:14 -43.36122 170.14075 1600 ft 121 kts 340°
2026-04-25 09:14 -43.35422 170.13512 1435 ft 111 kts 320°
2026-04-25 09:14 -43.34863 170.12890 1221 ft 97 kts 320°
2026-04-25 09:15 -43.34382 170.12294 1030 ft 89 kts 303°
2026-04-25 09:15 -43.34443 170.11471 736 ft 96 kts 220°
2026-04-25 09:15 -43.34947 170.11650 629 ft 78 kts 118°
2026-04-25 09:15 -43.35263 170.12187 637 ft 68 kts 145°
2026-04-25 09:16 -43.35663 170.12483 544 ft 76 kts 148°
2026-04-25 09:16 -43.36082 170.12976 449 ft 81 kts 124°
2026-04-25 09:16 -43.36377 170.13572 578 ft 75 kts 117°
2026-04-25 09:16 -43.36670 170.14207 773 ft 83 kts 111°
2026-04-25 09:17 -43.35879 170.15219 1102 ft 103 kts 339°
2026-04-25 09:17 -43.35361 170.14500 1173 ft 113 kts 307°
2026-04-25 09:17 -43.34891 170.13680 1184 ft 103 kts 309°
2026-04-25 09:18 -43.34475 170.12955 1083 ft 92 kts 308°
2026-04-25 09:18 -43.34177 170.12194 874 ft 92 kts 284°
2026-04-25 09:18 -43.34390 170.11414 666 ft 91 kts 211°
2026-04-25 09:18 -43.34924 170.11525 600 ft 77 kts 154°
2026-04-25 09:19 -43.35394 170.11846 482 ft 77 kts 142°
2026-04-25 09:19 -43.35762 170.12347 374 ft 72 kts 124°
2026-04-25 09:19 -43.36049 170.12898 287 ft 68 kts 122°
2026-04-25 09:19 -43.36255 170.13301 291 ft 32 kts 126°
2026-04-25 09:20 -43.36334 170.13439 295 ft 10 kts 135°
2026-04-25 09:20 -43.36358 170.13475 296 ft 4 kts 90°
2026-04-25 09:20 -43.36331 170.13446 295 ft 27 kts 302°
2026-04-25 09:20 -43.36089 170.12969 421 ft 76 kts 305°
2026-04-25 09:21 -43.35714 170.12353 710 ft 91 kts 316°
2026-04-25 09:21 -43.35216 170.11756 1060 ft 95 kts 323°
2026-04-25 09:21 -43.34686 170.11192 1369 ft 98 kts 322°
2026-04-25 09:21 -43.34150 170.10646 1702 ft 96 kts 322°
2026-04-25 09:22 -43.33598 170.10107 2001 ft 98 kts 322°
2026-04-25 09:22 -43.32949 170.09802 2249 ft 105 kts 358°
2026-04-25 09:22 -43.32277 170.10175 2557 ft 107 kts 39°
2026-04-25 09:22 -43.31835 170.11018 2867 ft 109 kts 58°
2026-04-25 09:23 -43.31444 170.11912 3187 ft 111 kts 59°
2026-04-25 09:23 -43.31046 170.12835 3493 ft 111 kts 60°
2026-04-25 09:23 -43.30653 170.13746 3785 ft 113 kts 60°
2026-04-25 09:23 -43.30244 170.14673 4071 ft 112 kts 60°
2026-04-25 09:24 -43.29842 170.15578 4334 ft 114 kts 60°
2026-04-25 09:24 -43.29425 170.16502 4602 ft 113 kts 61°
2026-04-25 09:24 -43.29018 170.17406 4843 ft 110 kts 61°
2026-04-25 09:24 -43.28758 170.17998 5006 ft 109 kts 61°
2026-04-25 09:25 -43.28368 170.18884 5239 ft 109 kts 61°
2026-04-25 09:25 -43.27973 170.19776 5460 ft 109 kts 61°
2026-04-25 09:25 -43.27576 170.20668 5678 ft 110 kts 61°
2026-04-25 09:25 -43.27175 170.21565 5884 ft 110 kts 61°
2026-04-25 09:26 -43.26705 170.22404 6062 ft 113 kts 51°
2026-04-25 09:26 -43.26185 170.23200 6285 ft 111 kts 50°
2026-04-25 09:26 -43.25655 170.23998 6452 ft 114 kts 50°
2026-04-25 09:26 -43.25123 170.24793 6657 ft 113 kts 50°
2026-04-25 09:27 -43.24591 170.25584 6814 ft 115 kts 50°
2026-04-25 09:27 -43.24051 170.26384 6997 ft 114 kts 50°
2026-04-25 09:27 -43.23505 170.27190 7153 ft 116 kts 50°
2026-04-25 09:27 -43.22956 170.28001 7322 ft 116 kts 50°
2026-04-25 09:28 -43.22402 170.28819 7473 ft 117 kts 50°
2026-04-25 09:28 -43.21845 170.29621 7625 ft 118 kts 47°
2026-04-25 09:28 -43.21226 170.30389 7767 ft 122 kts 44°
2026-04-25 09:28 -43.20585 170.31153 7922 ft 122 kts 44°
2026-04-25 09:29 -43.19940 170.31921 8061 ft 123 kts 44°
2026-04-25 09:29 -43.19295 170.32689 8185 ft 122 kts 44°
2026-04-25 09:29 -43.18637 170.33476 8165 ft 127 kts 44°
2026-04-25 09:29 -43.17982 170.34260 8237 ft 124 kts 44°
2026-04-25 09:30 -43.17305 170.35072 8129 ft 132 kts 44°
2026-04-25 09:30 -43.16631 170.35880 8101 ft 132 kts 44°
2026-04-25 09:30 -43.15934 170.36719 8033 ft 132 kts 44°
2026-04-25 09:30 -43.15245 170.37556 7904 ft 135 kts 45°
2026-04-25 09:31 -43.14562 170.38431 7837 ft 132 kts 46°
2026-04-25 09:31 -43.13895 170.39293 7738 ft 133 kts 46°
2026-04-25 09:31 -43.13223 170.40163 7652 ft 132 kts 46°
2026-04-25 09:31 -43.12560 170.41023 7568 ft 132 kts 46°
2026-04-25 09:32 -43.11893 170.41890 7483 ft 131 kts 46°
2026-04-25 09:32 -43.11232 170.42751 7404 ft 131 kts 46°
2026-04-25 09:32 -43.10580 170.43601 7325 ft 131 kts 46°
2026-04-25 09:32 -43.09923 170.44457 7251 ft 130 kts 46°
2026-04-25 09:33 -43.09266 170.45315 7173 ft 130 kts 46°
2026-04-25 09:33 -43.08611 170.46173 7103 ft 130 kts 46°
2026-04-25 09:33 -43.07958 170.47028 7031 ft 130 kts 46°
2026-04-25 09:33 -43.07308 170.47879 6959 ft 129 kts 46°
2026-04-25 09:34 -43.06669 170.48718 6892 ft 129 kts 46°
2026-04-25 09:34 -43.06022 170.49568 6822 ft 128 kts 46°
2026-04-25 09:34 -43.05377 170.50419 6757 ft 128 kts 46°
2026-04-25 09:34 -43.04737 170.51267 6694 ft 128 kts 46°
2026-04-25 09:35 -43.04098 170.52115 6631 ft 128 kts 46°
2026-04-25 09:35 -43.03465 170.52959 6574 ft 131 kts 46°
2026-04-25 09:35 -43.02808 170.53849 6517 ft 134 kts 46°
2026-04-25 09:35 -43.02164 170.54724 6452 ft 128 kts 46°
2026-04-25 09:36 -43.01534 170.55580 6394 ft 127 kts 46°
2026-04-25 09:36 -43.00906 170.56435 6334 ft 127 kts 47°
2026-04-25 09:36 -43.00279 170.57290 6278 ft 127 kts 47°
2026-04-25 09:36 -42.99655 170.58144 6221 ft 127 kts 47°
2026-04-25 09:37 -42.99041 170.58986 6174 ft 127 kts 47°
2026-04-25 09:37 -42.98419 170.59840 6125 ft 127 kts 47°
2026-04-25 09:37 -42.97797 170.60693 6075 ft 127 kts 47°
2026-04-25 09:37 -42.97176 170.61546 6032 ft 127 kts 47°
2026-04-25 09:38 -42.96555 170.62400 5991 ft 126 kts 47°
2026-04-25 09:38 -42.95936 170.63253 5947 ft 126 kts 47°
2026-04-25 09:38 -42.95317 170.64108 5898 ft 126 kts 47°
2026-04-25 09:38 -42.94699 170.64964 5855 ft 126 kts 47°
2026-04-25 09:39 -42.94091 170.65807 5820 ft 126 kts 47°
2026-04-25 09:39 -42.93475 170.66661 5783 ft 126 kts 47°
2026-04-25 09:39 -42.92855 170.67522 5730 ft 128 kts 47°
2026-04-25 09:40 -42.91583 170.69283 5572 ft 133 kts 47°
2026-04-25 09:40 -42.90940 170.70170 5531 ft 130 kts 46°
2026-04-25 09:40 -42.90275 170.71073 5365 ft 138 kts 46°
2026-04-25 09:40 -42.89608 170.71980 5360 ft 132 kts 46°
2026-04-25 09:41 -42.88949 170.72881 5240 ft 137 kts 46°
2026-04-25 09:41 -42.88284 170.73793 5199 ft 133 kts 46°
2026-04-25 09:41 -42.87626 170.74694 5099 ft 136 kts 46°
2026-04-25 09:41 -42.86955 170.75616 5012 ft 136 kts 46°
2026-04-25 09:42 -42.86300 170.76517 4911 ft 139 kts 46°
2026-04-25 09:42 -42.85616 170.77466 4822 ft 138 kts 46°
2026-04-25 09:42 -42.84933 170.78442 4706 ft 148 kts 47°
2026-04-25 09:42 -42.84209 170.79493 4527 ft 154 kts 46°
2026-04-25 09:43 -42.83470 170.80559 4350 ft 156 kts 46°
2026-04-25 09:43 -42.82696 170.81652 4088 ft 163 kts 46°
2026-04-25 09:43 -42.81928 170.82740 3935 ft 161 kts 46°
2026-04-25 09:43 -42.81154 170.83835 3783 ft 160 kts 46°
2026-04-25 09:44 -42.80384 170.84929 3630 ft 160 kts 46°
2026-04-25 09:44 -42.79630 170.85999 3606 ft 153 kts 46°
2026-04-25 09:44 -42.78898 170.87036 3607 ft 150 kts 45°
2026-04-25 09:44 -42.78174 170.88044 3610 ft 148 kts 45°
2026-04-25 09:45 -42.77451 170.89045 3613 ft 147 kts 45°
2026-04-25 09:45 -42.76735 170.90036 3614 ft 147 kts 45°
2026-04-25 09:45 -42.76020 170.91029 3613 ft 146 kts 45°
2026-04-25 09:45 -42.75332 170.91985 3613 ft 137 kts 45°
2026-04-25 09:46 -42.74674 170.92892 3618 ft 136 kts 45°
2026-04-25 09:46 -42.74008 170.93814 3619 ft 136 kts 45°
2026-04-25 09:46 -42.73368 170.94768 3620 ft 136 kts 49°
2026-04-25 09:46 -42.72758 170.95757 3619 ft 136 kts 50°
2026-04-25 09:47 -42.72110 170.96701 3604 ft 138 kts 45°
2026-04-25 09:47 -42.71398 170.97669 3410 ft 149 kts 44°
2026-04-25 09:47 -42.70661 170.98666 3301 ft 149 kts 44°
2026-04-25 09:47 -42.69937 170.99649 3230 ft 147 kts 44°
2026-04-25 09:48 -42.69217 171.00625 3125 ft 148 kts 45°
2026-04-25 09:48 -42.68495 171.01607 3057 ft 146 kts 45°
2026-04-25 09:48 -42.67769 171.02592 2931 ft 148 kts 45°
2026-04-25 09:48 -42.67032 171.03574 2824 ft 149 kts 43°
2026-04-25 09:49 -42.66262 171.04553 2661 ft 153 kts 43°
2026-04-25 09:49 -42.65487 171.05545 2541 ft 153 kts 43°
2026-04-25 09:49 -42.64707 171.06525 2405 ft 152 kts 42°
2026-04-25 09:49 -42.63927 171.07497 2283 ft 151 kts 42°
2026-04-25 09:50 -42.63161 171.08449 2236 ft 147 kts 42°
2026-04-25 09:50 -42.62478 171.09485 2095 ft 150 kts 63°
2026-04-25 09:50 -42.62361 171.10846 1984 ft 148 kts 104°
2026-04-25 09:50 -42.62897 171.11960 1936 ft 141 kts 144°
2026-04-25 09:51 -42.63809 171.12349 1840 ft 137 kts 184°
2026-04-25 09:51 -42.64664 171.11850 1736 ft 137 kts 223°
2026-04-25 09:51 -42.65140 171.10765 1686 ft 134 kts 253°
2026-04-25 09:51 -42.65390 171.09553 1688 ft 131 kts 245°
2026-04-25 09:52 -42.65878 171.08537 1669 ft 129 kts 230°
2026-04-25 09:52 -42.66447 171.07606 1650 ft 127 kts 230°
2026-04-25 09:52 -42.67014 171.06664 1539 ft 130 kts 230°
2026-04-25 09:52 -42.67576 171.05708 1386 ft 129 kts 231°
2026-04-25 09:53 -42.68135 171.04738 1141 ft 131 kts 232°
2026-04-25 09:53 -42.68635 171.03741 991 ft 121 kts 236°
2026-04-25 09:53 -42.69064 171.02813 748 ft 112 kts 237°
2026-04-25 09:53 -42.69455 171.01969 600 ft 97 kts 236°
2026-04-25 09:54 -42.69791 171.01260 502 ft 83 kts 235°
2026-04-25 09:54 -42.70098 171.00614 376 ft 81 kts 235°
2026-04-25 09:54 -42.70390 171.00007 287 ft 76 kts 236°
2026-04-25 09:54 -42.70678 170.99410 197 ft 76 kts 234°
2026-04-25 09:55 -42.70963 170.98816 126 ft 68 kts 234°
2026-04-25 09:55 -42.71164 170.98401 129 ft 35 kts 236°
2026-04-25 09:55 -42.71221 170.98283 130 ft 0 kts 239°